Stromsburg, Nebraska
Current Conditions -  °F | °C
As of 8:15 AM on Monday 22 Dec 2014 (Local Time) from KJYR Reporting Station
Overcast Overcast  
Wind Chill: 33°   Ceiling: 2600
Heat Index: 41°   Visibility: 9mi
Dew Point: 39°   Wind: 14mph
Humidity: 93%   Direction: 320°NW
Pressure: 29.5"   Gusts: NA
Location:  41.11°N, 97.6°W
Report Text: KJYR 221415Z AUTO 32012KT 9SM OVC026 05/04 A2950 RMK AO2
Loading
Personal Weather Stations






























Interactive Weather Map New forecast layout! Learn more

10-Day Weather Forecast

Advertisements
Track Severe Weather on mobile